sensor_id;sensor_type;location;lat;lon;timestamp;temperature;humidity
21473;DHT22;10898;48.072;11.682;2023-06-14T00:00:19;13.60;82.10
21473;DHT22;10898;48.072;11.682;2023-06-14T00:02:21;13.50;82.70
21473;DHT22;10898;48.072;11.682;2023-06-14T00:04:23;13.50;82.50
21473;DHT22;10898;48.072;11.682;2023-06-14T00:06:28;13.40;83.50
21473;DHT22;10898;48.072;11.682;2023-06-14T00:08:30;13.40;83.10
21473;DHT22;10898;48.072;11.682;2023-06-14T00:10:31;13.40;83.50
21473;DHT22;10898;48.072;11.682;2023-06-14T00:12:35;13.30;84.10
21473;DHT22;10898;48.072;11.682;2023-06-14T00:14:37;13.30;84.60
21473;DHT22;10898;48.072;11.682;2023-06-14T00:16:39;13.20;85.30
21473;DHT22;10898;48.072;11.682;2023-06-14T00:18:44;13.20;85.20
21473;DHT22;10898;48.072;11.682;2023-06-14T00:20:46;13.20;85.70
21473;DHT22;10898;48.072;11.682;2023-06-14T00:22:48;13.20;85.30
21473;DHT22;10898;48.072;11.682;2023-06-14T00:24:50;13.10;85.00
21473;DHT22;10898;48.072;11.682;2023-06-14T00:26:51;13.10;85.50
21473;DHT22;10898;48.072;11.682;2023-06-14T00:28:54;13.00;86.00
21473;DHT22;10898;48.072;11.682;2023-06-14T00:30:55;13.00;85.20
21473;DHT22;10898;48.072;11.682;2023-06-14T00:32:57;13.00;85.70
21473;DHT22;10898;48.072;11.682;2023-06-14T00:34:59;13.10;86.90
21473;DHT22;10898;48.072;11.682;2023-06-14T00:37:01;12.90;85.90
21473;DHT22;10898;48.072;11.682;2023-06-14T00:39:03;12.90;86.60
21473;DHT22;10898;48.072;11.682;2023-06-14T00:41:05;12.90;86.10
21473;DHT22;10898;48.072;11.682;2023-06-14T00:43:07;12.90;86.10
21473;DHT22;10898;48.072;11.682;2023-06-14T00:45:09;12.90;87.40
21473;DHT22;10898;48.072;11.682;2023-06-14T00:47:11;12.80;87.00
21473;DHT22;10898;48.072;11.682;2023-06-14T00:49:14;12.80;87.10
21473;DHT22;10898;48.072;11.682;2023-06-14T00:51:16;12.70;86.10
21473;DHT22;10898;48.072;11.682;2023-06-14T00:53:18;12.70;86.70
21473;DHT22;10898;48.072;11.682;2023-06-14T00:55:22;12.70;87.60
21473;DHT22;10898;48.072;11.682;2023-06-14T00:57:23;12.60;88.30
21473;DHT22;10898;48.072;11.682;2023-06-14T00:59:25;12.60;88.60
21473;DHT22;10898;48.072;11.682;2023-06-14T01:01:27;12.60;89.20
21473;DHT22;10898;48.072;11.682;2023-06-14T01:03:30;12.60;88.10
21473;DHT22;10898;48.072;11.682;2023-06-14T01:05:33;12.60;89.70
21473;DHT22;10898;48.072;11.682;2023-06-14T01:07:40;12.50;89.00
21473;DHT22;10898;48.072;11.682;2023-06-14T01:14:05;12.50;89.40
21473;DHT22;10898;48.072;11.682;2023-06-14T01:16:07;12.30;88.80
21473;DHT22;10898;48.072;11.682;2023-06-14T01:18:09;12.40;90.00
21473;DHT22;10898;48.072;11.682;2023-06-14T01:20:22;12.30;90.40
21473;DHT22;10898;48.072;11.682;2023-06-14T01:22:26;12.30;90.60
21473;DHT22;10898;48.072;11.682;2023-06-14T01:24:28;12.30;90.40
21473;DHT22;10898;48.072;11.682;2023-06-14T01:26:33;12.30;90.80
21473;DHT22;10898;48.072;11.682;2023-06-14T01:28:35;12.20;91.00
21473;DHT22;10898;48.072;11.682;2023-06-14T01:30:37;12.20;90.90
21473;DHT22;10898;48.072;11.682;2023-06-14T01:32:40;12.10;90.60
21473;DHT22;10898;48.072;11.682;2023-06-14T01:34:42;12.10;91.20
21473;DHT22;10898;48.072;11.682;2023-06-14T01:36:44;12.10;91.50
21473;DHT22;10898;48.072;11.682;2023-06-14T01:38:47;12.10;91.60
21473;DHT22;10898;48.072;11.682;2023-06-14T01:40:51;12.10;91.60
21473;DHT22;10898;48.072;11.682;2023-06-14T01:42:54;12.00;91.80
21473;DHT22;10898;48.072;11.682;2023-06-14T01:44:56;12.00;92.00
21473;DHT22;10898;48.072;11.682;2023-06-14T01:46:58;12.00;91.90
21473;DHT22;10898;48.072;11.682;2023-06-14T01:49:00;11.90;92.10
21473;DHT22;10898;48.072;11.682;2023-06-14T01:51:01;11.90;92.00
21473;DHT22;10898;48.072;11.682;2023-06-14T01:53:06;11.90;91.40
21473;DHT22;10898;48.072;11.682;2023-06-14T01:55:08;11.90;92.10
21473;DHT22;10898;48.072;11.682;2023-06-14T01:57:11;11.80;92.70
21473;DHT22;10898;48.072;11.682;2023-06-14T01:59:13;11.80;92.50
21473;DHT22;10898;48.072;11.682;2023-06-14T02:01:14;11.80;92.80
21473;DHT22;10898;48.072;11.682;2023-06-14T02:03:18;11.70;92.50
21473;DHT22;10898;48.072;11.682;2023-06-14T02:05:21;11.70;92.50
21473;DHT22;10898;48.072;11.682;2023-06-14T02:07:23;11.70;92.60
21473;DHT22;10898;48.072;11.682;2023-06-14T02:09:24;11.60;93.20
21473;DHT22;10898;48.072;11.682;2023-06-14T02:11:26;11.60;92.50
21473;DHT22;10898;48.072;11.682;2023-06-14T02:13:28;11.60;92.80
21473;DHT22;10898;48.072;11.682;2023-06-14T02:15:30;11.60;93.00
21473;DHT22;10898;48.072;11.682;2023-06-14T02:17:36;11.60;93.10
21473;DHT22;10898;48.072;11.682;2023-06-14T02:19:38;11.50;93.00
21473;DHT22;10898;48.072;11.682;2023-06-14T02:21:40;11.50;93.20
21473;DHT22;10898;48.072;11.682;2023-06-14T02:23:42;11.50;93.10
21473;DHT22;10898;48.072;11.682;2023-06-14T02:25:44;11.50;92.80
21473;DHT22;10898;48.072;11.682;2023-06-14T02:27:47;11.50;93.20
21473;DHT22;10898;48.072;11.682;2023-06-14T02:29:49;11.40;93.00
21473;DHT22;10898;48.072;11.682;2023-06-14T02:31:51;11.40;93.60
21473;DHT22;10898;48.072;11.682;2023-06-14T02:33:52;11.40;93.60
21473;DHT22;10898;48.072;11.682;2023-06-14T02:35:54;11.40;94.00
21473;DHT22;10898;48.072;11.682;2023-06-14T02:37:57;11.30;93.60
21473;DHT22;10898;48.072;11.682;2023-06-14T02:40:00;11.30;93.70
21473;DHT22;10898;48.072;11.682;2023-06-14T02:42:01;11.30;94.00
21473;DHT22;10898;48.072;11.682;2023-06-14T02:44:03;11.20;94.00
21473;DHT22;10898;48.072;11.682;2023-06-14T02:46:05;11.20;93.70
21473;DHT22;10898;48.072;11.682;2023-06-14T02:48:07;11.20;93.60
21473;DHT22;10898;48.072;11.682;2023-06-14T02:50:09;11.20;94.00
21473;DHT22;10898;48.072;11.682;2023-06-14T02:52:11;11.10;94.30
21473;DHT22;10898;48.072;11.682;2023-06-14T02:54:13;11.10;94.30
21473;DHT22;10898;48.072;11.682;2023-06-14T02:56:15;11.10;94.60
21473;DHT22;10898;48.072;11.682;2023-06-14T02:58:19;11.10;94.60
21473;DHT22;10898;48.072;11.682;2023-06-14T03:00:20;11.10;94.50
21473;DHT22;10898;48.072;11.682;2023-06-14T03:02:22;11.00;94.40
21473;DHT22;10898;48.072;11.682;2023-06-14T03:04:24;11.00;95.10
21473;DHT22;10898;48.072;11.682;2023-06-14T03:06:27;11.00;94.90
21473;DHT22;10898;48.072;11.682;2023-06-14T03:08:31;10.90;95.40
21473;DHT22;10898;48.072;11.682;2023-06-14T03:10:39;10.90;95.50
21473;DHT22;10898;48.072;11.682;2023-06-14T03:12:41;10.90;95.50
21473;DHT22;10898;48.072;11.682;2023-06-14T03:14:43;10.90;95.30
21473;DHT22;10898;48.072;11.682;2023-06-14T03:16:47;10.90;95.40
21473;DHT22;10898;48.072;11.682;2023-06-14T03:18:52;10.80;95.20
21473;DHT22;10898;48.072;11.682;2023-06-14T03:20:53;10.80;95.30
21473;DHT22;10898;48.072;11.682;2023-06-14T03:22:55;10.80;95.30
21473;DHT22;10898;48.072;11.682;2023-06-14T03:24:57;10.80;95.70
21473;DHT22;10898;48.072;11.682;2023-06-14T03:27:00;10.80;95.50
21473;DHT22;10898;48.072;11.682;2023-06-14T03:29:02;10.80;95.90
21473;DHT22;10898;48.072;11.682;2023-06-14T03:31:04;10.80;96.40
21473;DHT22;10898;48.072;11.682;2023-06-14T03:33:06;10.70;95.90
21473;DHT22;10898;48.072;11.682;2023-06-14T03:35:07;10.70;96.30
21473;DHT22;10898;48.072;11.682;2023-06-14T03:37:10;10.70;96.30
21473;DHT22;10898;48.072;11.682;2023-06-14T03:39:12;10.70;96.10
21473;DHT22;10898;48.072;11.682;2023-06-14T03:41:13;10.70;96.40
21473;DHT22;10898;48.072;11.682;2023-06-14T03:43:15;10.70;96.80
21473;DHT22;10898;48.072;11.682;2023-06-14T03:45:17;10.70;97.30
21473;DHT22;10898;48.072;11.682;2023-06-14T03:47:18;10.70;97.00
21473;DHT22;10898;48.072;11.682;2023-06-14T03:49:20;10.70;97.00
21473;DHT22;10898;48.072;11.682;2023-06-14T03:51:22;10.70;97.40
21473;DHT22;10898;48.072;11.682;2023-06-14T03:53:25;10.70;98.00
21473;DHT22;10898;48.072;11.682;2023-06-14T03:55:29;10.60;97.60
21473;DHT22;10898;48.072;11.682;2023-06-14T03:57:35;10.70;97.90
21473;DHT22;10898;48.072;11.682;2023-06-14T03:59:37;10.70;98.30
21473;DHT22;10898;48.072;11.682;2023-06-14T04:01:39;10.70;98.60
21473;DHT22;10898;48.072;11.682;2023-06-14T04:03:47;10.70;98.70
21473;DHT22;10898;48.072;11.682;2023-06-14T04:05:50;10.70;98.90
21473;DHT22;10898;48.072;11.682;2023-06-14T04:07:52;10.70;98.70
21473;DHT22;10898;48.072;11.682;2023-06-14T04:09:57;10.70;99.00
21473;DHT22;10898;48.072;11.682;2023-06-14T04:11:58;10.80;99.70
21473;DHT22;10898;48.072;11.682;2023-06-14T04:14:01;10.80;99.70
21473;DHT22;10898;48.072;11.682;2023-06-14T04:16:04;10.80;99.90
21473;DHT22;10898;48.072;11.682;2023-06-14T04:18:05;10.80;99.90
21473;DHT22;10898;48.072;11.682;2023-06-14T04:20:07;10.90;99.90
21473;DHT22;10898;48.072;11.682;2023-06-14T04:22:11;10.90;99.70
21473;DHT22;10898;48.072;11.682;2023-06-14T04:24:13;10.90;99.90
21473;DHT22;10898;48.072;11.682;2023-06-14T04:26:15;10.90;99.90
21473;DHT22;10898;48.072;11.682;2023-06-14T04:28:17;11.00;99.90
21473;DHT22;10898;48.072;11.682;2023-06-14T04:30:20;11.00;99.90
21473;DHT22;10898;48.072;11.682;2023-06-14T04:32:26;11.00;99.90
21473;DHT22;10898;48.072;11.682;2023-06-14T04:34:28;11.10;99.90
21473;DHT22;10898;48.072;11.682;2023-06-14T04:36:34;11.10;99.90
21473;DHT22;10898;48.072;11.682;2023-06-14T04:38:38;11.10;99.90
21473;DHT22;10898;48.072;11.682;2023-06-14T04:40:40;11.20;99.90
21473;DHT22;10898;48.072;11.682;2023-06-14T04:42:44;11.20;99.90
21473;DHT22;10898;48.072;11.682;2023-06-14T04:44:47;11.30;99.90
21473;DHT22;10898;48.072;11.682;2023-06-14T04:46:50;11.40;99.90
21473;DHT22;10898;48.072;11.682;2023-06-14T04:48:53;11.40;99.90
21473;DHT22;10898;48.072;11.682;2023-06-14T04:50:55;11.40;99.90
21473;DHT22;10898;48.072;11.682;2023-06-14T04:52:57;11.50;99.90
21473;DHT22;10898;48.072;11.682;2023-06-14T04:55:01;11.60;99.90
21473;DHT22;10898;48.072;11.682;2023-06-14T04:57:05;11.60;99.90
21473;DHT22;10898;48.072;11.682;2023-06-14T04:59:07;11.60;99.90
21473;DHT22;10898;48.072;11.682;2023-06-14T05:01:10;11.70;99.90
21473;DHT22;10898;48.072;11.682;2023-06-14T05:03:12;11.80;99.90
21473;DHT22;10898;48.072;11.682;2023-06-14T05:05:15;11.80;99.90
21473;DHT22;10898;48.072;11.682;2023-06-14T05:07:17;11.90;99.90
21473;DHT22;10898;48.072;11.682;2023-06-14T05:09:19;11.90;99.90
21473;DHT22;10898;48.072;11.682;2023-06-14T05:11:21;12.00;99.90
21473;DHT22;10898;48.072;11.682;2023-06-14T05:13:25;12.10;99.90
21473;DHT22;10898;48.072;11.682;2023-06-14T05:15:29;12.10;99.90
21473;DHT22;10898;48.072;11.682;2023-06-14T05:17:31;12.20;99.90
21473;DHT22;10898;48.072;11.682;2023-06-14T05:19:33;12.30;99.90
21473;DHT22;10898;48.072;11.682;2023-06-14T05:21:35;12.30;99.90
21473;DHT22;10898;48.072;11.682;2023-06-14T05:23:43;12.40;99.90
21473;DHT22;10898;48.072;11.682;2023-06-14T05:25:46;12.50;99.90
21473;DHT22;10898;48.072;11.682;2023-06-14T05:27:48;12.60;99.90
21473;DHT22;10898;48.072;11.682;2023-06-14T05:29:50;12.60;99.90
21473;DHT22;10898;48.072;11.682;2023-06-14T05:31:52;12.70;99.90
21473;DHT22;10898;48.072;11.682;2023-06-14T05:33:54;12.80;99.90
21473;DHT22;10898;48.072;11.682;2023-06-14T05:35:56;12.80;99.90
21473;DHT22;10898;48.072;11.682;2023-06-14T05:37:58;12.90;99.90
21473;DHT22;10898;48.072;11.682;2023-06-14T05:39:59;12.90;99.90
21473;DHT22;10898;48.072;11.682;2023-06-14T05:42:01;13.00;99.90
21473;DHT22;10898;48.072;11.682;2023-06-14T05:44:06;13.10;99.90
21473;DHT22;10898;48.072;11.682;2023-06-14T05:46:09;13.20;99.90
21473;DHT22;10898;48.072;11.682;2023-06-14T05:48:14;13.20;99.90
21473;DHT22;10898;48.072;11.682;2023-06-14T05:50:16;13.30;99.90
21473;DHT22;10898;48.072;11.682;2023-06-14T05:52:18;13.40;99.90
21473;DHT22;10898;48.072;11.682;2023-06-14T05:54:20;13.50;99.90
21473;DHT22;10898;48.072;11.682;2023-06-14T05:56:22;13.50;99.90
21473;DHT22;10898;48.072;11.682;2023-06-14T05:58:24;13.60;99.90
21473;DHT22;10898;48.072;11.682;2023-06-14T06:00:26;13.70;99.90
21473;DHT22;10898;48.072;11.682;2023-06-14T06:02:28;13.80;99.90
21473;DHT22;10898;48.072;11.682;2023-06-14T06:04:30;13.90;99.90
21473;DHT22;10898;48.072;11.682;2023-06-14T06:06:32;14.00;99.90
21473;DHT22;10898;48.072;11.682;2023-06-14T06:08:34;14.10;99.90
21473;DHT22;10898;48.072;11.682;2023-06-14T06:10:36;14.10;99.90
21473;DHT22;10898;48.072;11.682;2023-06-14T06:12:38;14.20;99.90
21473;DHT22;10898;48.072;11.682;2023-06-14T06:14:40;14.30;99.90
21473;DHT22;10898;48.072;11.682;2023-06-14T06:16:42;14.40;99.90
21473;DHT22;10898;48.072;11.682;2023-06-14T06:18:44;14.40;99.90
21473;DHT22;10898;48.072;11.682;2023-06-14T06:20:46;14.50;99.90
21473;DHT22;10898;48.072;11.682;2023-06-14T06:22:48;14.60;99.90
21473;DHT22;10898;48.072;11.682;2023-06-14T06:24:50;14.70;99.90
21473;DHT22;10898;48.072;11.682;2023-06-14T06:26:52;14.80;99.90
21473;DHT22;10898;48.072;11.682;2023-06-14T06:28:53;14.90;99.90
21473;DHT22;10898;48.072;11.682;2023-06-14T06:30:55;15.00;99.90
21473;DHT22;10898;48.072;11.682;2023-06-14T06:32:57;15.10;99.90
21473;DHT22;10898;48.072;11.682;2023-06-14T06:34:59;15.20;99.70
21473;DHT22;10898;48.072;11.682;2023-06-14T06:37:01;15.30;99.50
21473;DHT22;10898;48.072;11.682;2023-06-14T06:39:03;15.40;98.80
21473;DHT22;10898;48.072;11.682;2023-06-14T06:41:11;15.40;98.80
21473;DHT22;10898;48.072;11.682;2023-06-14T06:43:13;15.50;97.60
21473;DHT22;10898;48.072;11.682;2023-06-14T06:45:15;15.60;97.40
21473;DHT22;10898;48.072;11.682;2023-06-14T06:47:17;15.70;98.20
21473;DHT22;10898;48.072;11.682;2023-06-14T06:49:19;15.70;98.60
21473;DHT22;10898;48.072;11.682;2023-06-14T06:51:20;15.80;97.30
21473;DHT22;10898;48.072;11.682;2023-06-14T06:53:22;15.90;96.90
21473;DHT22;10898;48.072;11.682;2023-06-14T06:55:40;16.00;96.50
21473;DHT22;10898;48.072;11.682;2023-06-14T06:57:42;16.10;96.50
21473;DHT22;10898;48.072;11.682;2023-06-14T06:59:44;16.20;96.60
21473;DHT22;10898;48.072;11.682;2023-06-14T07:01:46;16.30;96.60
21473;DHT22;10898;48.072;11.682;2023-06-14T07:03:55;16.30;96.00
21473;DHT22;10898;48.072;11.682;2023-06-14T07:05:57;16.40;95.60
21473;DHT22;10898;48.072;11.682;2023-06-14T07:07:59;16.50;95.00
21473;DHT22;10898;48.072;11.682;2023-06-14T07:10:00;16.60;94.80
21473;DHT22;10898;48.072;11.682;2023-06-14T07:12:05;16.70;94.70
21473;DHT22;10898;48.072;11.682;2023-06-14T07:14:07;16.90;94.50
21473;DHT22;10898;48.072;11.682;2023-06-14T07:16:09;16.90;94.00
21473;DHT22;10898;48.072;11.682;2023-06-14T07:18:10;17.00;94.10
21473;DHT22;10898;48.072;11.682;2023-06-14T07:20:16;17.10;93.40
21473;DHT22;10898;48.072;11.682;2023-06-14T07:22:18;17.30;92.80
21473;DHT22;10898;48.072;11.682;2023-06-14T07:24:20;17.30;92.70
21473;DHT22;10898;48.072;11.682;2023-06-14T07:26:23;17.40;91.70
21473;DHT22;10898;48.072;11.682;2023-06-14T07:28:24;17.50;92.20
21473;DHT22;10898;48.072;11.682;2023-06-14T07:30:26;17.60;92.20
21473;DHT22;10898;48.072;11.682;2023-06-14T07:32:31;17.70;91.30
21473;DHT22;10898;48.072;11.682;2023-06-14T07:34:33;17.80;90.70
21473;DHT22;10898;48.072;11.682;2023-06-14T07:36:35;17.80;90.70
21473;DHT22;10898;48.072;11.682;2023-06-14T07:38:38;18.00;90.40
21473;DHT22;10898;48.072;11.682;2023-06-14T07:40:42;18.10;90.30
21473;DHT22;10898;48.072;11.682;2023-06-14T07:42:43;18.20;89.60
21473;DHT22;10898;48.072;11.682;2023-06-14T07:44:45;18.20;87.50
21473;DHT22;10898;48.072;11.682;2023-06-14T07:46:47;18.30;87.70
21473;DHT22;10898;48.072;11.682;2023-06-14T07:48:51;18.40;85.90
21473;DHT22;10898;48.072;11.682;2023-06-14T07:50:53;18.50;86.70
21473;DHT22;10898;48.072;11.682;2023-06-14T07:52:55;18.50;86.70
21473;DHT22;10898;48.072;11.682;2023-06-14T07:54:57;18.60;84.10
21473;DHT22;10898;48.072;11.682;2023-06-14T07:56:59;18.70;84.70
21473;DHT22;10898;48.072;11.682;2023-06-14T07:59:02;18.80;84.20
21473;DHT22;10898;48.072;11.682;2023-06-14T08:01:04;18.90;81.80
21473;DHT22;10898;48.072;11.682;2023-06-14T08:03:08;19.00;80.20
21473;DHT22;10898;48.072;11.682;2023-06-14T08:05:10;19.00;79.80
21473;DHT22;10898;48.072;11.682;2023-06-14T08:07:13;19.10;77.70
21473;DHT22;10898;48.072;11.682;2023-06-14T08:09:14;19.10;74.80
21473;DHT22;10898;48.072;11.682;2023-06-14T08:11:16;19.20;77.20
21473;DHT22;10898;48.072;11.682;2023-06-14T08:13:18;19.30;76.60
21473;DHT22;10898;48.072;11.682;2023-06-14T08:15:20;19.40;75.00
21473;DHT22;10898;48.072;11.682;2023-06-14T08:17:22;19.50;73.10
21473;DHT22;10898;48.072;11.682;2023-06-14T08:19:24;19.60;70.80
21473;DHT22;10898;48.072;11.682;2023-06-14T08:21:26;19.70;72.90
21473;DHT22;10898;48.072;11.682;2023-06-14T08:23:30;19.70;71.60
21473;DHT22;10898;48.072;11.682;2023-06-14T08:25:32;19.80;69.20
21473;DHT22;10898;48.072;11.682;2023-06-14T08:27:34;19.90;69.90
21473;DHT22;10898;48.072;11.682;2023-06-14T08:29:37;20.00;68.50
21473;DHT22;10898;48.072;11.682;2023-06-14T08:31:41;20.10;69.60
21473;DHT22;10898;48.072;11.682;2023-06-14T08:33:43;20.20;67.20
21473;DHT22;10898;48.072;11.682;2023-06-14T08:35:45;20.30;67.20
21473;DHT22;10898;48.072;11.682;2023-06-14T08:37:47;20.40;66.90
21473;DHT22;10898;48.072;11.682;2023-06-14T08:39:49;20.50;65.90
21473;DHT22;10898;48.072;11.682;2023-06-14T08:41:51;20.60;65.30
21473;DHT22;10898;48.072;11.682;2023-06-14T08:43:53;20.60;64.00
21473;DHT22;10898;48.072;11.682;2023-06-14T08:45:58;20.70;63.80
21473;DHT22;10898;48.072;11.682;2023-06-14T08:48:00;20.70;63.10
21473;DHT22;10898;48.072;11.682;2023-06-14T08:50:03;20.70;61.80
21473;DHT22;10898;48.072;11.682;2023-06-14T08:52:06;20.80;63.60
21473;DHT22;10898;48.072;11.682;2023-06-14T08:54:10;20.90;60.80
21473;DHT22;10898;48.072;11.682;2023-06-14T08:56:13;20.90;59.70
21473;DHT22;10898;48.072;11.682;2023-06-14T08:58:18;21.00;60.20
21473;DHT22;10898;48.072;11.682;2023-06-14T09:00:21;21.00;61.00
21473;DHT22;10898;48.072;11.682;2023-06-14T09:02:23;21.10;59.70
21473;DHT22;10898;48.072;11.682;2023-06-14T09:04:26;21.20;59.60
21473;DHT22;10898;48.072;11.682;2023-06-14T09:06:31;21.20;59.90
21473;DHT22;10898;48.072;11.682;2023-06-14T09:08:34;21.30;59.20
21473;DHT22;10898;48.072;11.682;2023-06-14T09:10:36;21.30;59.50
21473;DHT22;10898;48.072;11.682;2023-06-14T09:12:40;21.40;59.60
21473;DHT22;10898;48.072;11.682;2023-06-14T09:14:41;21.50;58.30
21473;DHT22;10898;48.072;11.682;2023-06-14T09:16:43;21.50;57.50
21473;DHT22;10898;48.072;11.682;2023-06-14T09:18:46;21.60;58.50
21473;DHT22;10898;48.072;11.682;2023-06-14T09:20:51;21.60;58.30
21473;DHT22;10898;48.072;11.682;2023-06-14T09:22:53;21.60;58.50
21473;DHT22;10898;48.072;11.682;2023-06-14T09:24:55;21.70;59.70
21473;DHT22;10898;48.072;11.682;2023-06-14T09:26:56;21.70;58.80
21473;DHT22;10898;48.072;11.682;2023-06-14T09:28:59;21.80;57.80
21473;DHT22;10898;48.072;11.682;2023-06-14T09:31:01;21.80;58.80
21473;DHT22;10898;48.072;11.682;2023-06-14T09:33:03;21.90;59.30
21473;DHT22;10898;48.072;11.682;2023-06-14T09:35:06;22.00;59.70
21473;DHT22;10898;48.072;11.682;2023-06-14T09:37:08;22.00;57.90
21473;DHT22;10898;48.072;11.682;2023-06-14T09:39:10;22.10;59.90
21473;DHT22;10898;48.072;11.682;2023-06-14T09:41:11;22.20;59.40
21473;DHT22;10898;48.072;11.682;2023-06-14T09:43:13;22.30;59.20
21473;DHT22;10898;48.072;11.682;2023-06-14T09:45:16;22.40;58.60
21473;DHT22;10898;48.072;11.682;2023-06-14T09:47:23;22.40;59.20
21473;DHT22;10898;48.072;11.682;2023-06-14T09:49:26;22.50;58.90
21473;DHT22;10898;48.072;11.682;2023-06-14T09:51:31;22.60;57.80
21473;DHT22;10898;48.072;11.682;2023-06-14T09:53:33;22.60;56.80
21473;DHT22;10898;48.072;11.682;2023-06-14T09:55:36;22.60;55.80
21473;DHT22;10898;48.072;11.682;2023-06-14T09:57:40;22.60;56.90
21473;DHT22;10898;48.072;11.682;2023-06-14T09:59:43;22.60;55.40
21473;DHT22;10898;48.072;11.682;2023-06-14T10:01:45;22.70;57.60
21473;DHT22;10898;48.072;11.682;2023-06-14T10:03:49;22.80;58.30
21473;DHT22;10898;48.072;11.682;2023-06-14T10:05:58;22.90;57.70
21473;DHT22;10898;48.072;11.682;2023-06-14T10:08:04;22.90;56.90
21473;DHT22;10898;48.072;11.682;2023-06-14T10:10:06;23.00;57.70
21473;DHT22;10898;48.072;11.682;2023-06-14T10:12:08;23.10;57.90
21473;DHT22;10898;48.072;11.682;2023-06-14T10:14:10;23.20;56.00
21473;DHT22;10898;48.072;11.682;2023-06-14T10:20:40;23.40;56.00
21473;DHT22;10898;48.072;11.682;2023-06-14T10:22:45;23.40;53.50
21473;DHT22;10898;48.072;11.682;2023-06-14T10:24:51;23.30;54.40
21473;DHT22;10898;48.072;11.682;2023-06-14T10:26:57;23.30;55.30
21473;DHT22;10898;48.072;11.682;2023-06-14T10:29:01;23.30;54.70
21473;DHT22;10898;48.072;11.682;2023-06-14T10:31:09;23.20;54.40
21473;DHT22;10898;48.072;11.682;2023-06-14T10:33:11;23.20;54.80
21473;DHT22;10898;48.072;11.682;2023-06-14T10:35:17;23.10;53.50
21473;DHT22;10898;48.072;11.682;2023-06-14T10:37:19;23.20;55.40
21473;DHT22;10898;48.072;11.682;2023-06-14T10:39:21;23.20;55.80
21473;DHT22;10898;48.072;11.682;2023-06-14T10:41:23;23.30;56.00
21473;DHT22;10898;48.072;11.682;2023-06-14T10:43:26;23.50;56.10
21473;DHT22;10898;48.072;11.682;2023-06-14T10:45:28;23.60;55.90
21473;DHT22;10898;48.072;11.682;2023-06-14T10:47:30;23.70;55.30
21473;DHT22;10898;48.072;11.682;2023-06-14T10:49:43;23.80;51.60
21473;DHT22;10898;48.072;11.682;2023-06-14T10:51:49;23.90;54.10
21473;DHT22;10898;48.072;11.682;2023-06-14T10:53:51;24.00;53.60
21473;DHT22;10898;48.072;11.682;2023-06-14T10:55:53;24.20;54.60
21473;DHT22;10898;48.072;11.682;2023-06-14T10:57:57;24.30;53.40
21473;DHT22;10898;48.072;11.682;2023-06-14T11:00:00;24.40;52.40
21473;DHT22;10898;48.072;11.682;2023-06-14T11:04:21;24.40;54.10
21473;DHT22;10898;48.072;11.682;2023-06-14T11:06:24;24.50;54.80
21473;DHT22;10898;48.072;11.682;2023-06-14T11:08:40;24.60;55.50
21473;DHT22;10898;48.072;11.682;2023-06-14T11:10:47;24.60;55.40
21473;DHT22;10898;48.072;11.682;2023-06-14T11:12:49;24.50;55.20
21473;DHT22;10898;48.072;11.682;2023-06-14T11:14:51;24.50;55.20
21473;DHT22;10898;48.072;11.682;2023-06-14T11:16:56;24.50;55.70
21473;DHT22;10898;48.072;11.682;2023-06-14T11:19:00;24.40;54.30
21473;DHT22;10898;48.072;11.682;2023-06-14T11:21:02;24.40;54.70
21473;DHT22;10898;48.072;11.682;2023-06-14T11:23:04;24.40;54.90
21473;DHT22;10898;48.072;11.682;2023-06-14T11:25:08;24.40;54.80
21473;DHT22;10898;48.072;11.682;2023-06-14T11:27:10;24.50;54.60
21473;DHT22;10898;48.072;11.682;2023-06-14T11:29:14;24.50;54.60
21473;DHT22;10898;48.072;11.682;2023-06-14T11:31:16;24.50;54.00
21473;DHT22;10898;48.072;11.682;2023-06-14T11:33:21;24.60;54.40
21473;DHT22;10898;48.072;11.682;2023-06-14T11:35:24;24.50;53.60
21473;DHT22;10898;48.072;11.682;2023-06-14T11:37:27;24.40;52.30
21473;DHT22;10898;48.072;11.682;2023-06-14T11:39:30;24.40;52.80
21473;DHT22;10898;48.072;11.682;2023-06-14T11:41:42;24.20;53.00
21473;DHT22;10898;48.072;11.682;2023-06-14T11:43:44;24.20;53.90
21473;DHT22;10898;48.072;11.682;2023-06-14T11:45:48;24.20;54.00
21473;DHT22;10898;48.072;11.682;2023-06-14T11:48:08;24.20;54.70
21473;DHT22;10898;48.072;11.682;2023-06-14T11:50:10;24.20;53.50
21473;DHT22;10898;48.072;11.682;2023-06-14T11:52:11;24.30;52.90
21473;DHT22;10898;48.072;11.682;2023-06-14T11:54:13;24.30;54.10
21473;DHT22;10898;48.072;11.682;2023-06-14T11:56:15;24.40;53.90
21473;DHT22;10898;48.072;11.682;2023-06-14T11:58:18;24.40;51.50
21473;DHT22;10898;48.072;11.682;2023-06-14T12:00:24;24.50;52.60
21473;DHT22;10898;48.072;11.682;2023-06-14T12:02:26;24.60;52.90
21473;DHT22;10898;48.072;11.682;2023-06-14T12:04:30;24.60;52.70
21473;DHT22;10898;48.072;11.682;2023-06-14T12:06:32;24.70;52.60
21473;DHT22;10898;48.072;11.682;2023-06-14T12:08:36;24.70;53.00
21473;DHT22;10898;48.072;11.682;2023-06-14T12:10:42;24.80;52.20
21473;DHT22;10898;48.072;11.682;2023-06-14T12:12:45;24.80;52.20
21473;DHT22;10898;48.072;11.682;2023-06-14T12:14:47;24.90;52.00
21473;DHT22;10898;48.072;11.682;2023-06-14T12:16:48;24.90;52.40
21473;DHT22;10898;48.072;11.682;2023-06-14T12:18:50;25.00;51.60
21473;DHT22;10898;48.072;11.682;2023-06-14T12:20:54;25.00;51.90
21473;DHT22;10898;48.072;11.682;2023-06-14T12:23:00;25.10;50.40
21473;DHT22;10898;48.072;11.682;2023-06-14T12:25:04;25.10;51.10
21473;DHT22;10898;48.072;11.682;2023-06-14T12:27:07;25.10;49.60
21473;DHT22;10898;48.072;11.682;2023-06-14T12:29:09;25.10;50.80
21473;DHT22;10898;48.072;11.682;2023-06-14T12:31:12;25.10;51.60
21473;DHT22;10898;48.072;11.682;2023-06-14T12:33:14;25.20;50.70
21473;DHT22;10898;48.072;11.682;2023-06-14T12:35:16;25.20;49.70
21473;DHT22;10898;48.072;11.682;2023-06-14T12:37:18;25.20;49.70
21473;DHT22;10898;48.072;11.682;2023-06-14T12:39:20;25.00;50.30
21473;DHT22;10898;48.072;11.682;2023-06-14T12:41:22;24.80;49.40
21473;DHT22;10898;48.072;11.682;2023-06-14T12:43:24;24.70;49.30
21473;DHT22;10898;48.072;11.682;2023-06-14T12:45:28;24.60;50.40
21473;DHT22;10898;48.072;11.682;2023-06-14T12:47:30;24.60;51.50
21473;DHT22;10898;48.072;11.682;2023-06-14T12:49:32;24.70;50.90
21473;DHT22;10898;48.072;11.682;2023-06-14T12:51:34;24.80;52.00
21473;DHT22;10898;48.072;11.682;2023-06-14T12:53:35;24.90;51.10